Susanne.pairtrawler — DETY — position and weather

sailwx.info

Track history (hours):
 
Tides and Currents Weather Stations Pressure Air Temp Water Temp Dewpoint Dewpoint Depression Visibility Wind Speed Wind Dir Waves Ship Positions

Susanne.pairtrawler

Last reported at 2018-Apr-19 16:32 UTC. Time now 2018-Apr-22 10:55 UTC.
Position N 58°23' E 003°59'.

Length 40 m; draft 5 m.

Type: Fishing. MMSI: 211227510.

Date/timePositionNaut miles runAvg speedWind from/ knotsBaromVisibWave heightAir tempDewpointWater temp
2018-Apr-19 16:32N 58°23' E 003°59'0 3.7
2018-Apr-19 16:30N 58°23' E 003°59'10 1.6
2018-Apr-19 10:28N 58°17' E 004°14'2 3.8
2018-Apr-19 09:57N 58°16' E 004°17'2 3.6
2018-Apr-19 09:24N 58°14' E 004°20'152 4.1
2018-Apr-17 20:19N 57°07' E 008°36'0 0.0
2018-Apr-17 20:00N 57°07' E 008°36'0 0.0
2018-Apr-17 19:30N 57°07' E 008°36'0 0.0
2018-Apr-17 08:34N 57°07' E 008°36'0 0.0
2018-Apr-17 08:29N 57°07' E 008°36'0 0.0
2018-Apr-17 08:00N 57°07' E 008°36'0 0.0
2018-Apr-17 07:30N 57°07' E 008°36'0 0.1
2018-Apr-17 06:59N 57°07' E 008°36'4 8.1
2018-Apr-17 06:27N 57°10' E 008°30'  
2018-Apr-10 15:08N 58°55' E 004°30'311.8
2018-Apr-10 14:53N 58°52' E 004°34'511.9
2018-Apr-10 14:25N 58°48' E 004°41'511.8
2018-Apr-10 14:00N 58°45' E 004°48'611.3
2018-Apr-10 13:30N 58°41' E 004°56'611.2
2018-Apr-10 12:59N 58°37' E 005°03'1411.0
2018-Apr-10 11:40N 58°26' E 005°22'410.8
2018-Apr-10 11:19N 58°24' E 005°28'411.1
2018-Apr-10 10:59N 58°21' E 005°33'611.3
2018-Apr-10 10:30N 58°18' E 005°41'711.5
2018-Apr-10 09:51N 58°13' E 005°52'411.5
2018-Apr-10 09:30N 58°11' E 005°58'612.0
2018-Apr-10 08:58N 58°07' E 006°07'612.2
2018-Apr-10 08:30N 58°03' E 006°16'612.1
2018-Apr-10 08:00N 57°60' E 006°25'612.1
2018-Apr-10 07:30N 57°56' E 006°34'612.1
2018-Apr-10 07:00N 57°52' E 006°43'611.7
2018-Apr-10 06:30N 57°48' E 006°52'612.0
2018-Apr-10 06:00N 57°45' E 007°01'  
Track history (hours):
 
Tides and Currents Weather Stations Pressure Air Temp Water Temp Dewpoint Dewpoint Depression Visibility Wind Speed Wind Dir Waves Ship Positions

Susanne.pairtrawler

Last reported at 2018-Apr-19 16:32 UTC. Time now 2018-Apr-22 10:55 UTC.
Position N 58°23' E 003°59'.

Length 40 m; draft 5 m.

Type: Fishing. MMSI: 211227510.

Date/timePositionNaut miles runAvg speedWind from/ knotsBaromVisibWave heightAir tempDewpointWater temp
2018-Apr-19 16:32N 58°23' E 003°59'0 3.7
2018-Apr-19 16:30N 58°23' E 003°59'10 1.6
2018-Apr-19 10:28N 58°17' E 004°14'2 3.8
2018-Apr-19 09:57N 58°16' E 004°17'2 3.6
2018-Apr-19 09:24N 58°14' E 004°20'152 4.1
2018-Apr-17 20:19N 57°07' E 008°36'0 0.0
2018-Apr-17 20:00N 57°07' E 008°36'0 0.0
2018-Apr-17 19:30N 57°07' E 008°36'0 0.0
2018-Apr-17 08:34N 57°07' E 008°36'0 0.0
2018-Apr-17 08:29N 57°07' E 008°36'0 0.0
2018-Apr-17 08:00N 57°07' E 008°36'0 0.0
2018-Apr-17 07:30N 57°07' E 008°36'0 0.1
2018-Apr-17 06:59N 57°07' E 008°36'4 8.1
2018-Apr-17 06:27N 57°10' E 008°30'  
2018-Apr-10 15:08N 58°55' E 004°30'311.8
2018-Apr-10 14:53N 58°52' E 004°34'511.9
2018-Apr-10 14:25N 58°48' E 004°41'511.8
2018-Apr-10 14:00N 58°45' E 004°48'611.3
2018-Apr-10 13:30N 58°41' E 004°56'611.2
2018-Apr-10 12:59N 58°37' E 005°03'1411.0
2018-Apr-10 11:40N 58°26' E 005°22'410.8
2018-Apr-10 11:19N 58°24' E 005°28'411.1
2018-Apr-10 10:59N 58°21' E 005°33'611.3
2018-Apr-10 10:30N 58°18' E 005°41'711.5
2018-Apr-10 09:51N 58°13' E 005°52'411.5
2018-Apr-10 09:30N 58°11' E 005°58'612.0
2018-Apr-10 08:58N 58°07' E 006°07'612.2
2018-Apr-10 08:30N 58°03' E 006°16'612.1
2018-Apr-10 08:00N 57°60' E 006°25'612.1
2018-Apr-10 07:30N 57°56' E 006°34'612.1
2018-Apr-10 07:00N 57°52' E 006°43'611.7
2018-Apr-10 06:30N 57°48' E 006°52'612.0
2018-Apr-10 06:00N 57°45' E 007°01'  

Dump ship's entire track history